METAR Data
IDs: Format: Raw Decoded Include TAF

Data at: 1341 UTC 10 Aug 2022

KSQL 101335Z AUTO 00000KT 10SM OVC020 17/13 A3007 RMK AO2
KSQL 101315Z AUTO 00000KT 10SM OVC020 16/14 A3006 RMK AO2
KSQL 101255Z AUTO 00000KT 10SM OVC020 15/13 A3005 RMK AO2
KSQL 101235Z AUTO 00000KT 10SM BKN022 15/13 A3005 RMK AO2
KSQL 101215Z AUTO 00000KT 10SM CLR 15/13 A3005 RMK AO2
KSQL 101155Z AUTO 00000KT 10SM SCT018 16/13 A3004 RMK AO2
KSQL 101135Z AUTO 00000KT 10SM OVC018 16/14 A3004 RMK AO2
KSQL 101115Z AUTO 00000KT 10SM SCT018 16/13 A3004 RMK AO2
KSQL 101055Z AUTO 00000KT 10SM CLR 16/13 A3004 RMK AO2
KSQL 101035Z AUTO 00000KT 10SM CLR 17/14 A3004 RMK AO2
KSQL 101015Z AUTO 00000KT 10SM FEW023 17/14 A3004 RMK AO2
KSQL 100955Z AUTO 00000KT 10SM FEW023 17/14 A3004 RMK AO2
KSQL 100935Z AUTO 00000KT 10SM CLR 17/13 A3004 RMK AO2
KSQL 100915Z AUTO 00000KT 10SM CLR 17/13 A3004 RMK AO2
KSQL 100855Z AUTO 00000KT 10SM CLR 18/14 A3004 RMK AO2
KSQL 100835Z AUTO 27004KT 10SM CLR 17/14 A3004 RMK AO2
KSQL 100815Z AUTO 00000KT 10SM CLR 17/14 A3005 RMK AO2
KSQL 100755Z AUTO 00000KT 10SM CLR 17/14 A3005 RMK AO2
KSQL 100735Z AUTO 00000KT 10SM CLR 18/14 A3005 RMK AO2
KSQL 100715Z AUTO 00000KT 10SM CLR 18/14 A3004 RMK AO2
KSQL 100655Z AUTO 00000KT 10SM CLR 18/14 A3004 RMK AO2
KSQL 100635Z AUTO 00000KT 10SM CLR 18/14 A3004 RMK AO2
KSQL 100615Z AUTO 27003KT 10SM CLR 18/14 A3004 RMK AO2
KSQL 100555Z AUTO 00000KT 10SM CLR 18/14 A3004 RMK AO2
KSQL 100535Z AUTO 00000KT 10SM CLR 18/14 A3004 RMK AO2
KSQL 100515Z AUTO 00000KT 10SM CLR 18/15 A3004 RMK AO2
KSQL 100455Z AUTO 00000KT 10SM CLR 18/15 A3004 RMK AO2
KSQL 100435Z AUTO 27005KT 10SM CLR 18/14 A3003 RMK AO2
KSQL 100415Z AUTO 00000KT 10SM CLR 18/14 A3001 RMK AO2
KSQL 100347Z 25009KT 10SM FEW008 18/15 A3000 RMK LAST
KSQL 100056Z 26013KT 10SM CLR 22/14 A2999
KSQL 092352Z 25011G19KT 10SM CLR 23/13 A2998
KSQL 092253Z 26012G18KT 10SM CLR 24/13 A2997
KSQL 092147Z 26014KT 10SM CLR 25/12 A2998
KSQL 092047Z 24015KT 10SM CLR 25/11 A2999
KSQL 091955Z 30009KT 10SM FEW012 24/12 A3000
KSQL 091847Z 33010KT 10SM CLR 23/13 A3001
KSQL 091747Z 00000KT 10SM FEW018 22/14 A3002
KSQL 091656Z 35007KT 10SM FEW015 22/14 A3002
KSQL 091547Z 00000KT 10SM BKN020 19/13 A3002
KSQL 091447Z 29010KT 10SM BKN020 18/13 A3001
KSQL 091355Z AUTO 00000KT 10SM OVC019 18/14 A3001 RMK AO2
KSQL 091347Z 00000KT 10SM OVC015 17/14 A3001
KSQL 091335Z AUTO 00000KT 10SM OVC019 18/14 A3001 RMK AO2
KSQL 091315Z AUTO 00000KT 10SM OVC019 17/14 A3000 RMK AO2
KSQL 091255Z AUTO 00000KT 10SM OVC017 17/14 A3000 RMK AO2
KSQL 091235Z AUTO 00000KT 10SM OVC017 17/14 A2999 RMK AO2
KSQL 091215Z AUTO 00000KT 10SM OVC019 17/14 A2999 RMK AO2
KSQL 091155Z AUTO 00000KT 10SM BKN017 17/14 A2999 RMK AO2
KSQL 091135Z AUTO 00000KT 10SM BKN017 17/14 A2998 RMK AO2
KSQL 091115Z AUTO 00000KT 10SM SCT017 17/14 A2998 RMK AO2
KSQL 091055Z AUTO 00000KT 10SM SCT017 17/14 A2998 RMK AO2
KSQL 091035Z AUTO 27005KT 10SM BKN017 17/14 A2998 RMK AO2
KSQL 091015Z AUTO 27003KT 10SM BKN017 17/14 A2999 RMK AO2
KSQL 090955Z AUTO 27008KT 10SM SCT017 17/14 A2999 RMK AO2
KSQL 090935Z AUTO 28005KT 10SM BKN017 17/14 A2999 RMK AO2
KSQL 090915Z AUTO 00000KT 10SM OVC017 17/14 A2999 RMK AO2
KSQL 090855Z AUTO 00000KT 10SM OVC017 17/14 A2999 RMK AO2
KSQL 090835Z AUTO 26003KT 10SM OVC017 17/14 A2999 RMK AO2
KSQL 090815Z AUTO 00000KT 10SM BKN017 17/14 A3000 RMK AO2
KSQL 090755Z AUTO 00000KT 10SM CLR 17/14 A3000 RMK AO2
KSQL 090735Z AUTO 00000KT 10SM CLR 17/14 A3000 RMK AO2
KSQL 090715Z AUTO 00000KT 10SM CLR 17/14 A3000 RMK AO2
KSQL 090655Z AUTO 00000KT 10SM CLR 17/14 A3000 RMK AO2
KSQL 090635Z AUTO 00000KT 10SM CLR 17/14 A3000 RMK AO2
KSQL 090615Z AUTO 00000KT 10SM CLR 17/13 A3000 RMK AO2
KSQL 090555Z AUTO 00000KT 10SM CLR 18/13 A3000 RMK AO2
KSQL 090535Z AUTO 00000KT 10SM CLR 18/14 A3000 RMK AO2
KSQL 090515Z AUTO 00000KT 10SM CLR 18/14 A3000 RMK AO2
KSQL 090455Z AUTO 28007KT 10SM CLR 18/13 A3000 RMK AO2
KSQL 090435Z AUTO 29003KT 10SM CLR 18/14 A2999 RMK AO2
KSQL 090415Z AUTO 29005KT 10SM CLR 18/14 A2999 RMK AO2
KSQL 090356Z 26008KT 10SM CLR 18/14 A2998 RMK LAST
KSQL 090253Z 25009KT 10SM CLR 19/14 A2997
KSQL 090156Z 25009KT 10SM CLR 22/14 A2996